Time;durP1;ratioP1;P1;durP2;ratioP2;P2;SDS_P1;SDS_P2;PMS_P1;PMS_P2;Temp;Humidity;BMP_temperature;BMP_pressure;BME280_temperature;BME280_humidity;BME280_pressure;Samples;Min_cycle;Max_cycle;Signal;HPM_P1;HPM_P2
2022/03/20 00:00:22;;;;;;;12.02;4.82;;;;;;;4.96;59.21;103256.25;5032967;28;20025;-80
2022/03/20 00:02:48;;;;;;;;;;;;;;;4.94;59.14;103252.75;5032900;28;20071;-80
2022/03/20 00:05:19;;;;;;;10.53;4.50;;;;;;;4.88;59.19;103244.75;5033358;28;19917;-80
2022/03/20 00:07:46;;;;;;;9.98;4.55;;;;;;;4.86;59.21;103242.09;5033327;28;20091;-80
2022/03/20 00:10:14;;;;;;;11.65;4.75;;;;;;;4.78;59.89;103241.72;5032127;28;20030;-80
2022/03/20 00:12:40;;;;;;;11.43;4.93;;;;;;;4.82;59.20;103237.59;5040803;28;20088;-80
2022/03/20 00:15:07;;;;;;;11.63;5.03;;;;;;;4.74;59.64;103238.94;5032532;28;20036;-80
2022/03/20 00:17:32;;;;;;;13.32;5.10;;;;;;;4.73;59.84;103238.03;5032353;28;20033;-80
2022/03/20 00:19:58;;;;;;;12.45;5.43;;;;;;;4.69;60.32;103237.84;5033004;28;20036;-80
2022/03/20 00:22:24;;;;;;;12.10;5.17;;;;;;;4.69;60.26;103236.16;5031786;28;20026;-80
2022/03/20 00:24:50;;;;;;;14.32;5.45;;;;;;;4.64;60.16;103235.03;5032653;28;20035;-81
2022/03/20 00:27:16;;;;;;;11.93;5.10;;;;;;;4.61;60.45;103222.94;5032875;28;20109;-80
2022/03/20 00:29:42;;;;;;;13.47;5.53;;;;;;;4.59;60.82;103226.25;5032249;28;20053;-81
2022/03/20 00:32:12;;;;;;;13.18;5.53;;;;;;;4.55;60.69;103214.94;5032736;28;20388;-81
2022/03/20 00:34:39;;;;;;;15.18;5.78;;;;;;;4.54;60.93;103213.16;5032413;28;20029;-81
2022/03/20 00:37:06;;;;;;;14.60;5.93;;;;;;;4.51;60.98;103209.53;5031859;28;20072;-81
2022/03/20 00:39:31;;;;;;;16.10;6.38;;;;;;;4.48;60.62;103184.56;5032608;28;20029;-80
2022/03/20 00:41:57;;;;;;;13.95;5.80;;;;;;;4.50;60.85;103184.66;5033372;28;20029;-81
2022/03/20 00:44:22;;;;;;;14.35;6.38;;;;;;;4.46;61.59;103187.06;5035844;28;20068;-81
2022/03/20 00:46:48;;;;;;;15.52;6.10;;;;;;;4.45;61.27;103192.13;5036329;28;20440;-81
2022/03/20 00:49:14;;;;;;;15.15;6.57;;;;;;;4.41;61.40;103175.69;5036378;28;20021;-80
2022/03/20 00:51:40;;;;;;;16.25;6.43;;;;;;;4.41;61.51;103172.22;5035281;28;20496;-80
2022/03/20 00:54:05;;;;;;;15.82;6.82;;;;;;;4.38;61.47;103183.25;5036434;28;20120;-80
2022/03/20 00:56:30;;;;;;;17.63;6.30;;;;;;;4.36;61.60;103177.16;5036449;28;20022;-80
2022/03/20 00:58:55;;;;;;;16.70;6.28;;;;;;;4.36;61.68;103173.69;5035969;28;20079;-80
2022/03/20 01:01:21;;;;;;;15.80;7.07;;;;;;;4.32;61.57;103172.66;5036315;28;20033;-81
2022/03/20 01:03:46;;;;;;;17.67;7.40;;;;;;;4.31;61.58;103168.31;5036443;28;20036;-81
2022/03/20 01:06:14;;;;;;;14.85;6.63;;;;;;;4.31;61.51;103155.47;5035630;28;20018;-80
2022/03/20 01:08:50;;;;;;;16.20;6.70;;;;;;;4.27;61.65;103163.88;5036290;28;20067;-80
2022/03/20 01:11:16;;;;;;;15.95;6.97;;;;;;;4.24;61.46;103154.28;5035402;28;20039;-80
2022/03/20 01:13:42;;;;;;;15.95;7.18;;;;;;;4.21;61.87;103160.97;5036187;28;20029;-81
2022/03/20 01:16:10;;;;;;;17.45;7.32;;;;;;;4.19;61.67;103150.63;5036190;28;20465;-80
2022/03/20 01:18:36;;;;;;;15.80;7.07;;;;;;;4.17;61.91;103149.69;5035048;28;20487;-80
2022/03/20 01:21:02;;;;;;;21.10;8.80;;;;;;;4.12;61.92;103138.28;5036108;28;20025;-81
2022/03/20 01:23:28;;;;;;;17.42;7.63;;;;;;;4.13;61.77;103146.09;5035918;28;20029;-81
2022/03/20 01:25:54;;;;;;;16.83;8.18;;;;;;;4.08;62.16;103142.41;5035578;28;20026;-80
2022/03/20 01:28:20;;;;;;;18.45;8.43;;;;;;;4.07;62.07;103138.06;5035840;28;20057;-81
2022/03/20 01:30:47;;;;;;;18.85;8.45;;;;;;;4.05;62.10;103126.84;5036015;28;20033;-81
2022/03/20 01:33:14;;;;;;;19.50;8.85;;;;;;;4.05;62.00;103123.38;5034981;28;20068;-80
2022/03/20 01:35:39;;;;;;;18.27;8.85;;;;;;;4.03;61.82;103120.75;5035555;28;20029;-80
2022/03/20 01:38:05;;;;;;;18.40;8.85;;;;;;;4.06;62.11;103122.56;5035757;28;20355;-80
2022/03/20 01:40:30;;;;;;;19.95;10.00;;;;;;;3.99;61.63;103118.81;5034538;28;20026;-81
2022/03/20 01:42:55;;;;;;;19.73;10.00;;;;;;;4.01;61.65;103114.66;5035871;28;20029;-81
2022/03/20 01:45:23;;;;;;;22.25;10.93;;;;;;;4.00;61.58;103103.47;5035291;28;20029;-80
2022/03/20 01:47:49;;;;;;;23.10;11.13;;;;;;;4.00;61.35;103100.91;5034857;28;20032;-80
2022/03/20 01:50:16;;;;;;;23.10;11.85;;;;;;;3.93;61.32;103087.72;5035657;28;20104;-81
2022/03/20 01:52:43;;;;;;;22.58;12.43;;;;;;;3.90;61.15;103091.00;5035496;28;20108;-80
2022/03/20 01:55:08;;;;;;;24.38;13.00;;;;;;;3.89;61.25;103078.09;5034660;28;20038;-81
2022/03/20 01:57:39;;;;;;;24.33;13.27;;;;;;;3.85;61.20;103084.75;5034678;28;20041;-81
2022/03/20 02:00:06;;;;;;;23.23;13.18;;;;;;;3.86;61.17;103086.53;5035272;28;20041;-81
2022/03/20 02:02:32;;;;;;;25.92;13.70;;;;;;;3.88;61.63;103081.44;5034183;28;20021;-81
2022/03/20 02:04:57;;;;;;;23.52;13.45;;;;;;;3.82;60.99;103080.38;5035178;28;20029;-81
2022/03/20 02:07:25;;;;;;;23.77;13.70;;;;;;;3.79;61.15;103081.88;5035320;28;20031;-82
2022/03/20 02:09:51;;;;;;;24.52;14.10;;;;;;;3.74;61.39;103068.81;5034512;28;20079;-81
2022/03/20 02:12:17;;;;;;;25.25;14.52;;;;;;;3.71;61.24;103067.00;5034978;28;20568;-80
2022/03/20 02:14:43;;;;;;;25.13;14.23;;;;;;;3.70;61.59;103069.50;5034185;28;20440;-83
2022/03/20 02:17:10;;;;;;;24.13;13.88;;;;;;;3.70;61.45;103067.78;5035003;28;20113;-80
2022/03/20 02:19:39;;;;;;;25.40;14.90;;;;;;;3.68;61.47;103058.25;5034650;28;20045;-81
2022/03/20 02:22:06;;;;;;;24.90;14.20;;;;;;;3.64;61.42;103054.66;5034222;28;20075;-81
2022/03/20 02:25:04;;;;;;;24.92;14.25;;;;;;;3.62;61.08;103047.66;5034671;28;20474;-80
2022/03/20 02:27:32;;;;;;;26.17;15.55;;;;;;;3.61;61.29;103033.97;5033605;28;20029;-80
2022/03/20 02:30:00;;;;;;;28.63;15.98;;;;;;;3.59;61.12;103039.84;5034027;28;20022;-80
2022/03/20 02:32:27;;;;;;;25.02;14.60;;;;;;;3.56;61.70;103027.69;5034740;28;20041;-80
2022/03/20 02:34:54;;;;;;;26.33;15.68;;;;;;;3.54;61.07;103024.19;5034979;28;20167;-81
2022/03/20 02:37:21;;;;;;;26.27;15.02;;;;;;;3.55;61.29;103023.38;5033773;28;20033;-80
2022/03/20 02:39:47;;;;;;;26.63;16.15;;;;;;;3.50;61.20;103029.97;5034444;28;20028;-80
2022/03/20 02:42:14;;;;;;;25.77;15.77;;;;;;;3.49;61.54;103033.34;5034461;28;20124;-80
2022/03/20 02:45:00;;;;;;;26.33;15.13;;;;;;;3.48;61.48;103029.03;5033505;28;20265;-80
2022/03/20 02:47:29;;;;;;;27.10;16.45;;;;;;;3.43;61.40;103039.06;5034320;28;20091;-80
2022/03/20 02:49:59;;;;;;;27.25;15.65;;;;;;;3.39;61.60;103025.19;5033894;28;20504;-80
2022/03/20 02:52:48;;;;;;;26.67;15.80;;;;;;;3.36;61.48;103029.31;5033885;28;20441;-80
2022/03/20 02:55:28;;;;;;;26.38;15.35;;;;;;;3.37;61.63;103011.41;5034675;28;20087;-81
2022/03/20 02:57:59;;;;;;;25.83;15.68;;;;;;;3.35;61.96;103007.88;5033509;28;20044;-81
2022/03/20 03:00:28;;;;;;;27.42;16.63;;;;;;;3.33;61.52;103006.91;5033742;28;20033;-81
2022/03/20 03:02:56;;;;;;;27.30;16.83;;;;;;;3.33;61.31;103000.91;5033790;28;20068;-81
2022/03/20 03:05:24;;;;;;;27.08;16.02;;;;;;;3.32;61.42;103000.00;5032594;28;20025;-81
2022/03/20 03:10:57;;;;;;;28.92;17.13;;;;;;;3.24;62.03;102997.09;5033878;28;20567;-81
2022/03/20 03:13:22;;;;;;;;;;;;;;;3.22;61.93;103002.94;5034199;28;20526;-81
2022/03/20 03:15:47;;;;;;;28.05;16.92;;;;;;;3.19;61.68;102990.84;5034054;28;20405;-80
2022/03/20 03:18:12;;;;;;;30.08;18.30;;;;;;;3.14;61.99;102982.03;5033227;28;20292;-81
2022/03/20 03:20:38;;;;;;;29.25;17.20;;;;;;;3.16;62.14;102987.25;5033616;28;20029;-81
2022/03/20 03:23:04;;;;;;;29.55;17.85;;;;;;;3.13;62.03;102995.69;5034183;28;20032;-81
2022/03/20 03:25:36;;;;;;;28.80;17.58;;;;;;;3.06;62.17;102985.88;5032843;28;20461;-80
2022/03/20 03:28:02;;;;;;;29.58;17.90;;;;;;;3.04;62.55;102980.69;5033844;28;20022;-80
2022/03/20 03:30:28;;;;;;;29.00;17.33;;;;;;;3.02;62.69;102981.44;5033685;28;20036;-82
2022/03/20 03:32:53;;;;;;;31.00;17.95;;;;;;;2.97;62.46;102970.94;5033116;28;20542;-80
2022/03/20 03:38:03;;;;;;;30.63;17.52;;;;;;;2.91;62.66;102961.25;5033593;28;20036;-81
2022/03/20 03:40:28;;;;;;;28.05;17.77;;;;;;;2.88;62.93;102962.75;5032230;28;20393;-82
2022/03/20 03:42:54;;;;;;;29.10;17.60;;;;;;;2.85;63.29;102955.78;5033111;28;20029;-80
2022/03/20 03:45:22;;;;;;;29.83;18.08;;;;;;;2.80;63.67;102954.69;5033371;28;20017;-80
2022/03/20 03:47:51;;;;;;;28.75;17.65;;;;;;;2.74;63.73;102939.88;5032680;28;20033;-81
2022/03/20 03:50:17;;;;;;;30.02;17.88;;;;;;;2.72;63.96;102943.16;5033336;28;20033;-81
2022/03/20 03:52:42;;;;;;;29.20;18.13;;;;;;;2.70;63.77;102947.34;5033405;28;20025;-80
2022/03/20 03:55:08;;;;;;;30.88;18.58;;;;;;;2.68;63.79;102939.53;5032522;28;20350;-80
2022/03/20 03:57:33;;;;;;;28.75;17.48;;;;;;;2.63;64.33;102929.06;5032963;28;20369;-80
2022/03/20 03:59:58;;;;;;;30.60;19.05;;;;;;;2.60;64.46;102933.16;5033339;28;20459;-80
2022/03/20 04:02:24;;;;;;;30.92;18.20;;;;;;;2.58;64.41;102934.75;5032117;28;20033;-80
2022/03/20 04:04:49;;;;;;;30.40;18.92;;;;;;;2.58;64.06;102925.41;5032993;28;20034;-80
2022/03/20 04:07:18;;;;;;;30.15;18.80;;;;;;;2.52;64.39;102934.44;5032292;28;20128;-80
2022/03/20 04:09:44;;;;;;;30.80;18.80;;;;;;;2.50;64.82;102925.78;5032564;28;20032;-81
2022/03/20 04:12:13;;;;;;;28.95;18.63;;;;;;;2.45;64.94;102912.75;5032876;28;20039;-80
2022/03/20 04:14:38;;;;;;;30.95;19.30;;;;;;;2.41;65.09;102916.84;5031870;28;20064;-80
2022/03/20 04:17:05;;;;;;;31.70;19.70;;;;;;;2.39;64.97;102914.97;5032342;28;20053;-80
2022/03/20 04:19:30;;;;;;;32.10;19.48;;;;;;;2.35;65.42;102913.06;5032307;28;20045;-80
2022/03/20 04:21:56;;;;;;;31.70;19.05;;;;;;;2.31;65.23;102902.66;5032141;28;20072;-81
2022/03/20 04:24:21;;;;;;;31.38;19.20;;;;;;;2.27;65.19;102895.59;5032460;28;20041;-80
2022/03/20 04:26:46;;;;;;;31.63;19.10;;;;;;;2.30;65.14;102889.78;5032979;28;20108;-81
2022/03/20 04:29:12;;;;;;;32.15;19.85;;;;;;;2.24;65.54;102890.34;5032303;28;20385;-80
2022/03/20 04:31:37;;;;;;;31.10;19.38;;;;;;;2.24;64.97;102880.09;5032759;28;20030;-80
2022/03/20 04:34:04;;;;;;;28.85;18.15;;;;;;;2.25;65.37;102873.25;5032646;28;20064;-80
2022/03/20 04:36:30;;;;;;;;;;;;;;;2.23;65.06;102862.94;5031782;28;20564;-81
2022/03/20 04:38:56;;;;;;;30.85;18.80;;;;;;;2.25;65.17;102866.44;5032788;28;19947;-80
2022/03/20 04:41:22;;;;;;;30.53;18.97;;;;;;;2.23;64.98;102865.50;5032610;28;20056;-80
2022/03/20 04:43:49;;;;;;;30.53;19.03;;;;;;;2.22;64.87;102870.53;5032079;28;20028;-80
2022/03/20 04:46:16;;;;;;;30.33;19.27;;;;;;;2.20;64.90;102867.91;5032866;28;20021;-80
2022/03/20 04:59:37;;;;;;;29.90;18.83;;;;;;;2.13;65.31;102861.59;5032380;28;20029;-80
2022/03/20 05:02:04;;;;;;;30.40;18.80;;;;;;;2.12;65.20;102847.00;5032842;28;20030;-80
2022/03/20 05:04:32;;;;;;;31.00;19.42;;;;;;;2.07;65.41;102843.34;5031817;28;20029;-80
2022/03/20 05:06:57;;;;;;;31.15;19.35;;;;;;;2.07;65.23;102824.53;5032676;28;20029;-80
2022/03/20 05:14:51;;;;;;;29.77;18.70;;;;;;;2.06;65.18;102830.44;5032457;28;20060;-80
2022/03/20 05:17:17;;;;;;;30.77;18.58;;;;;;;2.06;65.11;102831.34;5031708;28;20470;-80
2022/03/20 05:19:42;;;;;;;28.90;18.20;;;;;;;2.06;65.52;102833.91;5031234;28;20046;-80
2022/03/20 05:22:10;;;;;;;29.73;19.13;;;;;;;2.05;64.89;102826.13;5032193;28;20504;-80
2022/03/20 05:24:36;;;;;;;31.55;18.98;;;;;;;2.03;65.19;102827.75;5031296;28;20307;-80
2022/03/20 05:27:02;;;;;;;30.00;18.60;;;;;;;2.02;65.15;102821.72;5032586;28;20052;-80
2022/03/20 05:29:27;;;;;;;30.13;19.27;;;;;;;2.02;64.91;102823.41;5034825;28;20025;-80
2022/03/20 05:31:55;;;;;;;30.00;18.65;;;;;;;1.98;64.58;102820.69;5035332;28;20021;-79
2022/03/20 05:34:21;;;;;;;30.67;18.48;;;;;;;1.97;65.04;102821.50;5035885;28;20029;-80
2022/03/20 05:36:46;;;;;;;29.20;18.10;;;;;;;1.97;64.50;102815.50;5035981;28;20071;-80
2022/03/20 05:39:12;;;;;;;30.08;18.65;;;;;;;1.97;64.98;102813.81;5035102;28;20105;-80
2022/03/20 05:41:47;;;;;;;31.90;19.77;;;;;;;1.95;64.44;102812.84;5035743;28;20021;-80
2022/03/20 05:44:13;;;;;;;29.45;17.83;;;;;;;1.95;64.53;102810.28;5035899;28;20831;-81
2022/03/20 05:46:39;;;;;;;30.60;18.97;;;;;;;1.95;64.46;102805.16;5034715;28;20424;-80
2022/03/20 05:49:05;;;;;;;30.55;18.65;;;;;;;1.98;64.05;102797.63;5035577;28;20296;-80
2022/03/20 05:51:31;;;;;;;32.53;19.25;;;;;;;2.00;63.46;102787.47;5035405;28;20024;-80
2022/03/20 05:53:57;;;;;;;30.15;18.75;;;;;;;1.99;63.18;102786.59;5034821;28;20377;-80
2022/03/20 05:59:05;;;;;;;31.40;18.45;;;;;;;2.06;63.16;102785.22;5035603;28;20040;-80
2022/03/20 06:01:31;;;;;;;30.45;18.20;;;;;;;2.10;63.14;102784.56;5034516;28;20029;-81
2022/03/20 06:03:56;;;;;;;31.10;19.08;;;;;;;2.13;62.63;102789.00;5035514;28;20037;-80
2022/03/20 06:06:22;;;;;;;29.13;17.98;;;;;;;2.15;62.12;102783.13;5035199;28;20025;-81
2022/03/20 06:08:49;;;;;;;30.70;19.15;;;;;;;2.17;61.71;102790.88;5035143;28;20084;-80
2022/03/20 06:11:14;;;;;;;31.63;18.40;;;;;;;2.22;61.27;102783.44;5035564;28;20100;-80
2022/03/20 06:13:39;;;;;;;29.70;17.90;;;;;;;2.23;60.73;102775.84;5034312;28;20045;-79
2022/03/20 06:16:08;;;;;;;30.98;18.75;;;;;;;2.30;61.35;102783.03;5034349;28;20081;-80
2022/03/20 06:18:34;;;;;;;31.20;18.50;;;;;;;2.32;60.30;102783.09;5034914;28;20065;-81
2022/03/20 06:20:59;;;;;;;30.67;18.95;;;;;;;2.36;60.48;102782.44;5033791;28;20834;-80
2022/03/20 06:23:27;;;;;;;30.42;18.45;;;;;;;2.41;59.23;102777.53;5034595;28;20025;-80
2022/03/20 06:25:52;;;;;;;30.00;18.08;;;;;;;2.46;59.97;102781.22;5034067;28;20040;-80
2022/03/20 06:28:17;;;;;;;30.80;18.38;;;;;;;2.47;59.44;102780.44;5033746;28;20108;-80
2022/03/20 06:30:43;;;;;;;29.52;18.27;;;;;;;2.52;59.50;102778.97;5034973;28;20033;-80
2022/03/20 06:33:09;;;;;;;29.77;18.30;;;;;;;2.56;59.23;102783.44;5034835;28;20075;-80
2022/03/20 06:35:35;;;;;;;30.17;18.35;;;;;;;2.61;59.12;102781.09;5033870;28;20033;-80
2022/03/20 06:38:00;;;;;;;30.73;18.17;;;;;;;2.62;58.96;102788.00;5034777;28;20028;-81
2022/03/20 06:40:26;;;;;;;30.30;18.08;;;;;;;2.67;58.73;102776.25;5033475;28;20033;-80
2022/03/20 06:42:52;;;;;;;30.50;17.65;;;;;;;2.71;58.55;102772.16;5033942;28;20524;-80
2022/03/20 06:45:19;;;;;;;29.43;17.93;;;;;;;2.74;58.41;102782.56;5034395;28;20029;-81
2022/03/20 06:47:44;;;;;;;27.92;17.38;;;;;;;2.77;58.66;102777.59;5034410;28;20033;-80
2022/03/20 06:50:11;;;;;;;28.27;17.70;;;;;;;2.80;58.13;102776.84;5033718;28;20052;-80
2022/03/20 06:52:39;;;;;;;;;;;;;;;2.84;58.00;102764.25;5034458;28;20548;-80
2022/03/20 06:55:06;;;;;;;29.60;17.80;;;;;;;2.90;58.57;102761.09;5034632;28;20003;-80
2022/03/20 06:57:31;;;;;;;31.40;18.55;;;;;;;2.93;57.61;102749.28;5033234;28;20022;-80
2022/03/20 06:59:59;;;;;;;30.10;18.38;;;;;;;2.99;57.73;102743.56;5034633;28;20032;-77
2022/03/20 07:02:25;;;;;;;28.13;17.95;;;;;;;3.02;57.15;102751.41;5033830;28;20034;-76
2022/03/20 07:04:51;;;;;;;29.63;18.33;;;;;;;3.04;57.42;102749.81;5033516;28;20033;-77
2022/03/20 07:07:23;;;;;;;29.70;18.00;;;;;;;3.06;57.03;102742.16;5034028;28;20025;-78
2022/03/20 07:09:48;;;;;;;30.52;18.08;;;;;;;3.10;56.61;102741.50;5034137;28;20025;-79
2022/03/20 07:12:13;;;;;;;30.58;18.27;;;;;;;3.14;56.62;102750.22;5033081;28;20025;-79
2022/03/20 07:14:39;;;;;;;28.95;17.90;;;;;;;3.18;56.20;102740.16;5033755;28;20355;-78
2022/03/20 07:17:16;;;;;;;28.23;17.60;;;;;;;3.23;56.13;102737.81;5033041;28;20045;-78
2022/03/20 07:19:43;;;;;;;29.50;17.52;;;;;;;3.27;55.10;102732.03;5033622;28;20045;-79
2022/03/20 07:22:10;;;;;;;29.40;16.92;;;;;;;3.34;54.70;102728.03;5034029;28;20032;-79
2022/03/20 07:24:41;;;;;;;29.20;17.25;;;;;;;3.37;53.54;102720.50;5032692;28;20483;-79
2022/03/20 07:29:54;;;;;;;29.60;17.15;;;;;;;3.46;53.45;102710.63;5034390;28;20096;-78
2022/03/20 07:32:19;;;;;;;27.73;16.95;;;;;;;3.52;53.40;102713.44;5033296;28;20018;-80
2022/03/20 07:34:45;;;;;;;26.83;16.65;;;;;;;3.54;52.98;102704.13;5034218;28;20040;-77
2022/03/20 07:37:16;;;;;;;28.65;17.25;;;;;;;3.58;51.84;102694.88;5032715;28;20500;-79
2022/03/20 07:39:51;;;;;;;29.08;16.35;;;;;;;3.61;52.24;102694.13;5032988;28;20337;-81
2022/03/20 07:42:19;;;;;;;27.90;16.77;;;;;;;3.60;51.93;102690.69;5033636;28;20048;-81
2022/03/20 07:44:48;;;;;;;28.35;17.52;;;;;;;3.60;52.02;102706.09;5033013;28;20072;-79
2022/03/20 07:47:23;;;;;;;30.65;17.70;;;;;;;3.61;51.91;102704.38;5032118;28;20048;-79
2022/03/20 07:49:53;;;;;;;27.52;16.80;;;;;;;3.65;52.35;102696.00;5032960;28;20042;-79
2022/03/20 08:00:04;;;;;;;27.25;16.02;;;;;;;3.70;51.38;102703.09;5030676;22;20061;-79
2022/03/20 08:02:29;;;;;;;28.38;17.83;;;;;;;3.66;50.80;102700.34;5012968;28;20026;-82
2022/03/20 08:04:55;;;;;;;27.30;16.25;;;;;;;3.66;51.25;102696.06;5013391;28;20026;-79
2022/03/20 08:07:24;;;;;;;29.27;17.60;;;;;;;3.66;51.19;102695.22;5012329;28;20081;-80
2022/03/20 08:09:50;;;;;;;28.40;16.85;;;;;;;3.68;51.73;102701.28;5013668;28;20018;-80
2022/03/20 08:12:15;;;;;;;27.60;16.15;;;;;;;3.66;51.66;102685.81;5013046;28;20474;-82
2022/03/20 08:14:58;;;;;;;25.08;15.15;;;;;;;3.69;51.35;102683.38;5012834;28;20043;-82
2022/03/20 08:17:24;;;;;;;27.58;16.83;;;;;;;3.68;50.70;102684.19;5013311;28;20039;-81
2022/03/20 08:19:49;;;;;;;26.25;15.57;;;;;;;3.75;51.89;102674.19;5013235;28;20026;-82
2022/03/20 08:22:14;;;;;;;26.10;15.73;;;;;;;3.74;51.14;102685.28;5008697;28;20042;-82
2022/03/20 08:24:41;;;;;;;26.45;15.93;;;;;;;3.79;51.41;102683.75;5012593;28;20112;-82
2022/03/20 08:27:07;;;;;;;26.67;15.43;;;;;;;3.79;50.98;102671.81;5012761;28;20030;-81
2022/03/20 08:29:32;;;;;;;25.85;15.73;;;;;;;3.80;51.25;102678.72;5011176;28;20441;-81
2022/03/20 08:31:57;;;;;;;25.92;15.15;;;;;;;3.83;51.66;102673.69;5012658;28;20037;-86
2022/03/20 08:34:23;;;;;;;27.88;16.35;;;;;;;3.81;50.83;102669.28;5011812;28;20034;-82
2022/03/20 08:36:48;;;;;;;26.48;15.95;;;;;;;3.86;52.01;102670.38;5013338;28;20048;-82
2022/03/20 08:39:13;;;;;;;27.48;16.05;;;;;;;3.86;51.58;102667.81;5012524;28;20034;-82
2022/03/20 08:41:39;;;;;;;25.48;14.52;;;;;;;3.89;51.88;102661.91;5011523;28;20026;-83
2022/03/20 08:44:05;;;;;;;27.38;16.77;;;;;;;3.89;50.71;102662.78;5013237;28;20029;-82
2022/03/20 08:46:32;;;;;;;27.55;16.30;;;;;;;3.93;51.10;102666.38;5013453;28;20084;-82
2022/03/20 08:48:57;;;;;;;26.65;15.38;;;;;;;3.94;51.70;102665.56;5013761;28;20026;-83
2022/03/20 08:51:23;;;;;;;26.17;15.77;;;;;;;3.95;51.06;102664.72;5013271;28;20493;-82
2022/03/20 08:53:49;;;;;;;25.40;15.13;;;;;;;3.96;51.72;102664.81;5013438;28;20022;-83
2022/03/20 08:56:15;;;;;;;24.65;14.52;;;;;;;3.98;51.50;102670.00;5012595;28;20029;-82
2022/03/20 08:58:43;;;;;;;29.58;16.17;;;;;;;3.99;51.23;102676.91;5018611;28;20042;-81
2022/03/20 09:01:08;;;;;;;26.65;15.57;;;;;;;3.98;51.73;102670.00;5015448;28;20029;-83
2022/03/20 09:03:34;;;;;;;28.10;16.98;;;;;;;3.95;51.05;102673.31;5013313;28;20029;-83
2022/03/20 09:05:59;;;;;;;26.83;15.95;;;;;;;3.96;51.16;102667.38;5017163;28;20449;-83
2022/03/20 09:08:24;;;;;;;26.83;16.30;;;;;;;3.98;51.37;102672.56;5018259;28;20029;-80
2022/03/20 09:10:51;;;;;;;26.10;15.25;;;;;;;4.00;51.53;102670.94;5016674;28;20030;-82
2022/03/20 09:13:16;;;;;;;24.13;14.23;;;;;;;4.02;51.55;102661.63;5016483;28;20157;-81
2022/03/20 09:15:42;;;;;;;22.70;13.80;;;;;;;4.06;52.24;102663.47;5016252;28;20104;-82
2022/03/20 09:20:51;;;;;;;27.35;15.43;;;;;;;4.12;51.80;102650.91;5017073;28;20060;-81
2022/03/20 09:23:16;;;;;;;25.08;14.60;;;;;;;4.22;52.12;102652.16;5016789;28;20470;-80
2022/03/20 09:25:41;;;;;;;27.02;16.25;;;;;;;4.32;50.54;102643.09;5016150;28;20045;-82
2022/03/20 09:28:09;;;;;;;27.75;16.75;;;;;;;4.45;50.01;102644.44;5016823;28;20033;-81
2022/03/20 09:30:45;;;;;;;27.13;16.25;;;;;;;4.70;50.66;102635.09;5016449;28;20053;-81
2022/03/20 09:33:11;;;;;;;28.48;17.35;;;;;;;5.05;49.26;102623.56;5016916;28;20049;-81
2022/03/20 09:35:37;;;;;;;28.20;17.58;;;;;;;5.26;47.84;102620.88;5017164;28;20096;-82
2022/03/20 09:38:20;;;;;;;26.93;16.07;;;;;;;5.46;47.99;102625.84;5016135;28;20105;-82
2022/03/20 09:40:46;;;;;;;28.52;17.52;;;;;;;5.48;47.77;102626.75;5016400;28;20075;-83
2022/03/20 09:43:11;;;;;;;28.98;17.63;;;;;;;5.38;48.31;102612.72;5016305;28;20030;-83
2022/03/20 09:45:38;;;;;;;29.80;17.70;;;;;;;5.40;47.53;102599.88;5015266;28;20177;-83
2022/03/20 09:48:04;;;;;;;30.45;17.80;;;;;;;5.53;47.89;102596.91;5016032;28;20018;-84
2022/03/20 09:50:30;;;;;;;26.90;16.30;;;;;;;5.76;48.24;102601.06;5015689;28;20071;-83
2022/03/20 09:52:56;;;;;;;29.80;18.00;;;;;;;5.85;46.47;102599.69;5015037;28;20642;-83
2022/03/20 09:55:25;;;;;;;28.00;16.60;;;;;;;5.94;47.74;102604.25;5016654;28;20103;-83
2022/03/20 09:58:02;;;;;;;28.33;17.27;;;;;;;6.08;47.37;102606.44;5017756;28;20018;-84
2022/03/20 10:00:27;;;;;;;28.35;17.80;;;;;;;6.12;48.09;102605.69;5015507;28;20074;-83
2022/03/20 10:03:30;;;;;;;28.88;18.05;;;;;;;6.04;46.69;102610.59;5017211;28;20058;-83
2022/03/20 10:06:39;;;;;;;28.02;17.13;;;;;;;6.03;48.15;102608.84;5011291;28;20125;-83
2022/03/20 10:09:16;;;;;;;27.45;16.90;;;;;;;5.99;47.37;102605.31;5011562;28;20045;-83
2022/03/20 10:11:55;;;;;;;;;;;;;;;5.99;48.85;102601.81;5016119;28;20092;-83
2022/03/20 10:14:26;;;;;;;24.90;15.07;;;;;;;5.96;48.57;102597.47;5013572;28;20003;-82
2022/03/20 10:17:36;;;;;;;24.33;14.18;;;;;;;5.97;49.03;102617.22;5015743;28;20034;-81
2022/03/20 10:20:15;;;;;;;28.35;17.02;;;;;;;5.98;49.22;102611.25;5015549;28;20370;-82
2022/03/20 10:22:42;;;;;;;27.27;16.52;;;;;;;6.01;49.65;102611.38;5014818;28;20034;-82
2022/03/20 10:25:11;;;;;;;29.67;18.40;;;;;;;6.01;54.75;102628.56;5015504;28;20033;-82
2022/03/20 10:27:36;;;;;;;33.17;21.45;;;;;;;5.85;56.67;102634.88;5014270;28;20446;-82
2022/03/20 10:30:01;;;;;;;32.58;20.15;;;;;;;5.71;59.02;102626.69;5015318;28;20021;-83
2022/03/20 10:32:27;;;;;;;33.95;22.48;;;;;;;5.51;59.85;102626.88;5014985;28;20026;-82
2022/03/20 10:34:58;;;;;;;33.38;21.92;;;;;;;5.41;59.15;102625.69;5014069;28;20033;-82
2022/03/20 10:38:02;;;;;;;31.98;20.58;;;;;;;5.40;59.83;102613.63;5014556;28;20589;-83
2022/03/20 10:40:29;;;;;;;30.85;19.90;;;;;;;5.31;60.81;102615.03;4934919;29;20046;-83
2022/03/20 10:43:15;;;;;;;31.52;19.88;;;;;;;5.28;61.42;102625.19;4934376;29;20461;-82
2022/03/20 10:45:55;;;;;;;32.15;21.15;;;;;;;5.25;62.75;102620.81;4984156;28;20060;-82
2022/03/20 10:48:28;;;;;;;34.72;23.20;;;;;;;5.30;64.09;102621.84;5013643;28;20038;-82
2022/03/20 10:50:55;;;;;;;34.88;23.15;;;;;;;5.41;63.99;102620.53;5014374;28;20530;-82
2022/03/20 10:53:20;;;;;;;35.30;23.73;;;;;;;5.60;62.59;102616.03;5014601;28;20066;-83
2022/03/20 10:55:45;;;;;;;33.70;21.90;;;;;;;5.55;61.85;102626.19;5014140;28;20061;-83
2022/03/20 10:58:23;;;;;;;31.40;20.92;;;;;;;5.61;62.14;102640.97;5014456;28;20381;-82
2022/03/20 11:00:49;;;;;;;34.20;23.02;;;;;;;5.56;62.80;102627.03;5014133;28;20042;-82
2022/03/20 11:03:15;;;;;;;32.90;21.65;;;;;;;5.43;63.77;102635.16;5013355;28;20041;-82
2022/03/20 11:05:41;;;;;;;30.95;19.85;;;;;;;5.47;64.20;102631.88;5014551;28;20110;-82
2022/03/20 11:08:06;;;;;;;33.33;22.45;;;;;;;5.46;64.11;102630.13;5014349;28;20025;-82
2022/03/20 11:10:33;;;;;;;30.67;20.25;;;;;;;5.49;63.69;102631.09;5012181;28;20058;-82
2022/03/20 11:12:59;;;;;;;31.92;21.00;;;;;;;5.65;65.48;102629.06;5013975;28;20084;-82
2022/03/20 11:15:29;;;;;;;29.17;18.65;;;;;;;5.69;66.03;102623.16;5013762;28;20382;-82
2022/03/20 11:17:56;;;;;;;31.75;20.48;;;;;;;5.76;63.53;102626.81;5013705;28;20375;-83
2022/03/20 11:20:23;;;;;;;32.95;21.90;;;;;;;5.71;64.39;102631.81;5014238;28;20084;-83
2022/03/20 11:22:51;;;;;;;33.17;21.83;;;;;;;5.70;64.29;102635.22;5014155;28;20030;-83
2022/03/20 11:25:25;;;;;;;32.05;21.10;;;;;;;5.67;63.20;102646.31;5013273;28;20038;-83
2022/03/20 11:28:01;;;;;;;31.52;21.13;;;;;;;5.55;63.24;102633.00;5014282;28;20022;-83
2022/03/20 11:30:28;;;;;;;31.47;20.10;;;;;;;5.55;63.61;102636.47;5013317;28;20026;-82
2022/03/20 11:32:56;;;;;;;30.83;20.48;;;;;;;5.55;64.95;102640.72;5014216;28;20417;-83
2022/03/20 11:35:29;;;;;;;34.13;23.23;;;;;;;5.57;65.21;102611.63;5014002;28;20026;-83
2022/03/20 11:37:58;;;;;;;33.67;21.58;;;;;;;5.57;65.70;102633.94;5013555;28;20030;-83
2022/03/20 11:40:25;;;;;;;32.40;21.08;;;;;;;5.63;64.37;102621.25;5013930;28;20099;-82
2022/03/20 11:43:15;;;;;;;31.45;20.75;;;;;;;5.64;65.33;102614.44;5013795;28;20130;-83
2022/03/20 11:45:41;;;;;;;34.95;22.92;;;;;;;5.82;65.06;102616.75;5013052;28;20335;-83
2022/03/20 11:48:15;;;;;;;32.20;20.58;;;;;;;5.99;64.71;102625.03;5013800;28;20036;-83
2022/03/20 11:50:45;;;;;;;31.08;20.08;;;;;;;6.11;63.78;102625.47;5013816;28;20474;-83
2022/03/20 11:53:10;;;;;;;30.40;19.80;;;;;;;6.18;63.12;102622.22;5013261;28;20030;-82
2022/03/20 11:55:47;;;;;;;30.70;20.27;;;;;;;6.29;62.92;102624.28;5012264;28;20032;-79
2022/03/20 11:58:20;;;;;;;28.92;18.23;;;;;;;6.29;63.23;102617.44;5013030;28;20529;-82
2022/03/20 12:01:03;;;;;;;29.27;18.90;;;;;;;6.34;62.16;102610.69;5014227;28;20055;-82